createdAt,value
2023-01-21T00:00:57.962Z,100568.22
2023-01-21T00:03:25.769Z,100576.97
2023-01-21T00:05:53.381Z,100575.22
2023-01-21T00:08:22.249Z,100576.09
2023-01-21T00:10:49.753Z,100579.59
2023-01-21T00:13:17.456Z,100581.31
2023-01-21T00:15:45.074Z,100598.84
2023-01-21T00:18:12.596Z,100595.38
2023-01-21T00:20:40.125Z,100606.75
2023-01-21T00:23:07.631Z,100608.47
2023-01-21T00:25:36.455Z,100619.81
2023-01-21T00:28:04.055Z,100619.78
2023-01-21T00:30:31.627Z,100623.25
2023-01-21T00:32:59.133Z,100625.03
2023-01-21T00:35:26.670Z,100630.22
2023-01-21T00:37:54.226Z,100635.50
2023-01-21T00:40:22.174Z,100631.94
2023-01-21T00:42:51.130Z,100640.72
2023-01-21T00:45:18.587Z,100641.63
2023-01-21T00:47:46.073Z,100647.75
2023-01-21T00:50:13.587Z,100649.53
2023-01-21T00:52:41.041Z,100653.94
2023-01-21T00:55:09.178Z,100648.66
2023-01-21T00:57:36.686Z,100658.34
2023-01-21T01:00:10.927Z,100662.69
2023-01-21T01:02:38.483Z,100660.94
2023-01-21T01:05:08.215Z,100667.06
2023-01-21T01:07:35.961Z,100670.56
2023-01-21T01:10:03.449Z,100671.44
2023-01-21T01:12:31.047Z,100679.31
2023-01-21T01:15:00.828Z,100690.69
2023-01-21T01:17:29.817Z,100688.03
2023-01-21T01:19:58.058Z,100696.78
2023-01-21T01:22:25.578Z,100714.28
2023-01-21T01:24:53.283Z,100711.66
2023-01-21T01:27:20.784Z,100721.28
2023-01-21T01:29:49.662Z,100725.66
2023-01-21T01:32:17.181Z,100725.63
2023-01-21T01:34:46.544Z,100730.81
2023-01-21T01:37:14.176Z,100736.13
2023-01-21T01:39:41.665Z,100748.31
2023-01-21T01:42:14.774Z,100746.59
2023-01-21T01:45:00.255Z,100743.09
2023-01-21T01:47:33.249Z,100756.22
2023-01-21T01:50:03.420Z,100758.84
2023-01-21T01:52:31.605Z,100760.56
2023-01-21T01:55:02.201Z,100757.06
2023-01-21T01:57:35.415Z,100764.13
2023-01-21T02:00:04.955Z,100765.84
2023-01-21T02:02:32.870Z,100763.19
2023-01-21T02:05:05.975Z,100765.84
2023-01-21T02:07:39.321Z,100771.94
2023-01-21T02:10:08.232Z,100774.53
2023-01-21T02:12:38.561Z,100772.78
2023-01-21T02:15:07.519Z,100779.72
2023-01-21T02:17:47.722Z,100777.94
2023-01-21T02:21:03.456Z,100777.00
2023-01-21T02:23:48.333Z,100781.28
2023-01-21T02:26:43.671Z,100774.28
2023-01-21T02:29:33.403Z,100779.47
2023-01-21T02:32:36.204Z,100781.22
2023-01-21T02:35:14.868Z,100784.66
2023-01-21T02:37:52.762Z,100776.75
2023-01-21T02:40:26.459Z,100789.00
2023-01-21T02:43:03.185Z,100790.66
2023-01-21T02:45:39.106Z,100802.94
2023-01-21T02:48:11.606Z,100801.19
2023-01-21T02:50:45.487Z,100802.16
2023-01-21T02:53:25.490Z,100804.75
2023-01-21T02:55:53.194Z,100809.16
2023-01-21T02:58:25.743Z,100813.59
2023-01-21T03:01:05.506Z,100811.84
2023-01-21T03:04:04.107Z,100819.75
2023-01-21T03:06:45.987Z,100817.13
2023-01-21T03:09:21.193Z,100825.91
2023-01-21T03:11:58.113Z,100827.72
2023-01-21T03:14:49.112Z,100825.06
2023-01-21T03:17:23.495Z,100835.50
2023-01-21T03:19:56.486Z,100838.97
2023-01-21T03:22:30.457Z,100835.59
2023-01-21T03:24:59.807Z,100837.38
2023-01-21T03:27:31.222Z,100840.84
2023-01-21T03:30:03.267Z,100834.69
2023-01-21T03:32:33.837Z,100839.03
2023-01-21T03:35:04.832Z,100841.66
2023-01-21T03:37:41.652Z,100846.00
2023-01-21T03:40:18.980Z,100850.28
2023-01-21T03:42:50.301Z,100847.75
2023-01-21T03:45:25.874Z,100863.50
2023-01-21T03:47:57.311Z,100860.84
2023-01-21T03:50:30.923Z,100860.81
2023-01-21T03:53:00.174Z,100858.97
2023-01-21T03:55:27.780Z,100861.41
2023-01-21T03:57:55.363Z,100856.19
2023-01-21T04:00:23.296Z,100866.59
2023-01-21T04:02:50.766Z,100868.28
2023-01-21T04:05:18.286Z,100872.69
2023-01-21T04:07:45.839Z,100876.09
2023-01-21T04:10:14.976Z,100872.63
2023-01-21T04:12:42.691Z,100877.00
2023-01-21T04:15:11.330Z,100877.09
2023-01-21T04:17:38.848Z,100871.75
2023-01-21T04:20:08.634Z,100881.41
2023-01-21T04:22:36.140Z,100876.22
2023-01-21T04:25:05.119Z,100886.72
2023-01-21T04:27:34.000Z,100888.53
2023-01-21T04:30:01.540Z,100889.34
2023-01-21T04:32:29.049Z,100902.34
2023-01-21T04:34:56.523Z,100897.91
2023-01-21T04:37:24.046Z,100902.38
2023-01-21T04:39:51.580Z,100901.47
2023-01-21T04:42:19.079Z,100896.25
2023-01-21T04:44:48.096Z,100906.69
2023-01-21T04:47:15.560Z,100905.75
2023-01-21T04:49:43.017Z,100905.78
2023-01-21T04:52:10.517Z,100903.06
2023-01-21T04:54:37.995Z,100910.03
2023-01-21T04:57:05.861Z,100907.47
2023-01-21T04:59:33.680Z,100906.53
2023-01-21T05:02:02.628Z,100909.16
2023-01-21T05:04:30.379Z,100909.16
2023-01-21T05:06:57.869Z,100914.22
2023-01-21T05:09:25.494Z,100923.47
2023-01-21T05:11:53.038Z,100909.63
2023-01-21T05:14:20.596Z,100915.75
2023-01-21T05:16:48.215Z,100927.00
2023-01-21T05:19:17.082Z,100919.72
2023-01-21T05:21:44.546Z,100926.72
2023-01-21T05:24:12.177Z,100930.94
2023-01-21T05:26:39.700Z,100931.00
2023-01-21T05:29:07.222Z,100932.91
2023-01-21T05:31:34.791Z,100934.75
2023-01-21T05:34:02.330Z,100950.47
2023-01-21T05:36:31.157Z,100946.84
2023-01-21T05:38:58.696Z,100953.09
2023-01-21T05:41:26.273Z,100955.63
2023-01-21T05:43:53.773Z,100957.31
2023-01-21T05:46:21.284Z,100957.31
2023-01-21T05:48:48.870Z,100951.25
2023-01-21T05:51:16.381Z,100960.84
2023-01-21T05:53:45.256Z,100958.25
2023-01-21T05:56:15.518Z,100965.94
2023-01-21T05:58:43.021Z,100972.09
2023-01-21T06:01:10.550Z,100980.94
2023-01-21T06:03:38.316Z,100984.44
2023-01-21T06:06:07.642Z,100986.19
2023-01-21T06:08:35.175Z,100987.91
2023-01-21T06:11:04.036Z,100999.31
2023-01-21T06:13:31.625Z,100999.19
2023-01-21T06:15:59.177Z,100999.94
2023-01-21T06:18:26.816Z,101006.22
2023-01-21T06:20:54.338Z,101015.16
2023-01-21T06:23:21.800Z,101018.69
2023-01-21T06:25:49.348Z,101021.34
2023-01-21T06:28:18.221Z,101024.91
2023-01-21T06:30:45.819Z,101030.34
2023-01-21T06:33:13.328Z,101032.22
2023-01-21T06:35:40.830Z,101039.31
2023-01-21T06:38:08.338Z,101030.53
2023-01-21T06:40:36.083Z,101032.47
2023-01-21T06:43:03.593Z,101038.66
2023-01-21T06:45:32.509Z,101040.50
2023-01-21T06:48:00.020Z,101034.41
2023-01-21T06:50:27.580Z,101037.03
2023-01-21T06:52:55.048Z,101035.34
2023-01-21T06:55:22.523Z,101043.13
2023-01-21T06:57:50.018Z,101041.38
2023-01-21T07:00:19.599Z,101039.66
2023-01-21T07:02:48.697Z,101042.28
2023-01-21T07:05:16.611Z,101044.06
2023-01-21T07:07:44.265Z,101052.88
2023-01-21T07:10:12.533Z,101059.88
2023-01-21T07:12:40.024Z,101058.19
2023-01-21T07:15:09.027Z,101059.03
2023-01-21T07:17:36.666Z,101065.28
2023-01-21T07:20:06.473Z,101062.66
2023-01-21T07:22:34.787Z,101064.41
2023-01-21T07:25:02.417Z,101069.66
2023-01-21T07:27:29.929Z,101077.53
2023-01-21T07:29:57.393Z,101081.09
2023-01-21T07:32:25.039Z,101078.47
2023-01-21T07:34:52.536Z,101074.09
2023-01-21T07:37:21.391Z,101084.63
2023-01-21T07:39:48.848Z,101096.91
2023-01-21T07:42:16.622Z,101094.38
2023-01-21T07:44:44.095Z,101094.31
2023-01-21T07:47:11.567Z,101097.81
2023-01-21T07:49:40.630Z,101103.91
2023-01-21T07:52:08.132Z,101105.63
2023-01-21T07:54:36.933Z,101107.41
2023-01-21T07:57:04.511Z,101106.53
2023-01-21T07:59:31.977Z,101113.56
2023-01-21T08:01:59.647Z,101111.88
2023-01-21T08:04:27.163Z,101110.88
2023-01-21T08:06:56.890Z,101117.97
2023-01-21T08:09:24.707Z,101122.38
2023-01-21T08:11:53.562Z,101120.69
2023-01-21T08:14:21.020Z,101124.13
2023-01-21T08:16:48.476Z,101123.22
2023-01-21T08:19:15.965Z,101126.84
2023-01-21T08:21:43.416Z,101133.91
2023-01-21T08:24:11.420Z,101137.31
2023-01-21T08:26:39.066Z,101134.72
2023-01-21T08:29:08.160Z,101147.97
2023-01-21T08:31:35.699Z,101151.44
2023-01-21T08:34:03.237Z,101147.16
2023-01-21T08:36:30.747Z,101147.16
2023-01-21T08:39:01.765Z,101149.78
2023-01-21T08:41:29.328Z,101147.16
2023-01-21T08:43:56.806Z,101156.00
2023-01-21T08:46:25.773Z,101153.41
2023-01-21T08:48:53.296Z,101160.44
2023-01-21T08:51:20.823Z,101160.47
2023-01-21T08:53:50.104Z,101162.09
2023-01-21T08:56:18.559Z,101162.91
2023-01-21T08:58:46.187Z,101162.19
2023-01-21T09:01:16.144Z,101172.84
2023-01-21T09:03:45.004Z,101173.75
2023-01-21T09:06:12.865Z,101173.75
2023-01-21T09:08:41.937Z,101178.94
2023-01-21T09:11:10.023Z,101177.19
2023-01-21T09:13:39.588Z,101174.59
2023-01-21T09:16:10.633Z,101177.19
2023-01-21T09:18:38.250Z,101177.16
2023-01-21T09:21:08.028Z,101192.06
2023-01-21T09:23:36.619Z,101180.72
2023-01-21T09:26:06.044Z,101184.31
2023-01-21T09:28:35.662Z,101191.25
2023-01-21T09:31:05.432Z,101190.22
2023-01-21T09:33:35.180Z,101184.97
2023-01-21T09:36:05.247Z,101188.47
2023-01-21T09:38:34.645Z,101192.13
2023-01-21T09:41:13.915Z,101190.44
2023-01-21T09:43:47.403Z,101188.81
2023-01-21T09:46:23.678Z,101201.81
2023-01-21T09:48:52.450Z,101205.34
2023-01-21T09:51:26.950Z,101201.72
2023-01-21T09:53:58.958Z,101208.03
2023-01-21T09:56:35.407Z,101214.13
2023-01-21T09:59:08.473Z,101219.28
2023-01-21T10:01:39.553Z,101218.50
2023-01-21T10:04:30.050Z,101221.25
2023-01-21T10:07:04.948Z,101230.84
2023-01-21T10:09:52.127Z,101225.81
2023-01-21T10:12:44.021Z,101224.16
2023-01-21T10:15:29.178Z,101223.38
2023-01-21T10:17:59.151Z,101228.63
2023-01-21T10:20:30.758Z,101225.22
2023-01-21T10:23:02.497Z,101228.75
2023-01-21T10:25:33.693Z,101225.38
2023-01-21T10:28:06.153Z,101221.09
2023-01-21T10:30:37.710Z,101232.50
2023-01-21T10:33:08.025Z,101231.72
2023-01-21T10:35:49.975Z,101231.72
2023-01-21T10:38:24.748Z,101237.00
2023-01-21T10:41:03.010Z,101229.16
2023-01-21T10:43:37.142Z,101234.44
2023-01-21T10:46:15.539Z,101227.47
2023-01-21T10:48:48.447Z,101219.53
2023-01-21T10:51:21.108Z,101224.00
2023-01-21T10:53:56.931Z,101234.50
2023-01-21T10:56:36.301Z,101233.69
2023-01-21T10:59:08.113Z,101225.88
2023-01-21T11:01:40.562Z,101224.13
2023-01-21T11:04:15.270Z,101224.16
2023-01-21T11:06:44.816Z,101225.09
2023-01-21T11:09:15.796Z,101225.97
2023-01-21T11:11:46.330Z,101237.41
2023-01-21T11:14:13.834Z,101234.78
2023-01-21T11:16:49.272Z,101218.09
2023-01-21T11:19:30.240Z,101222.53
2023-01-21T11:22:01.097Z,101212.84
2023-01-21T11:24:32.644Z,101213.78
2023-01-21T11:27:02.794Z,101224.31
2023-01-21T11:29:40.966Z,101231.34
2023-01-21T11:32:19.140Z,101227.78
2023-01-21T11:34:48.343Z,101227.81
2023-01-21T11:37:24.284Z,101223.38
2023-01-21T11:39:55.096Z,101232.97
2023-01-21T11:42:24.978Z,101228.63
2023-01-21T11:44:54.390Z,101236.53
2023-01-21T11:47:31.153Z,101232.16
2023-01-21T11:50:04.835Z,101233.06
2023-01-21T11:52:32.339Z,101232.13
2023-01-21T11:55:04.071Z,101231.31
2023-01-21T11:57:34.167Z,101229.53
2023-01-21T12:00:09.107Z,101228.72
2023-01-21T12:02:43.000Z,101235.63
2023-01-21T12:05:16.795Z,101230.44
2023-01-21T12:07:48.822Z,101231.31
2023-01-21T12:10:27.165Z,101223.44
2023-01-21T12:13:12.945Z,101227.81
2023-01-21T12:15:53.547Z,101228.63
2023-01-21T12:18:31.276Z,101213.66
2023-01-21T12:21:06.005Z,101218.03
2023-01-21T12:23:50.605Z,101211.03
2023-01-21T12:26:30.493Z,101217.22
2023-01-21T12:29:16.229Z,101212.88
2023-01-21T12:31:49.570Z,101214.66
2023-01-21T12:34:30.102Z,101214.66
2023-01-21T12:37:02.618Z,101216.38
2023-01-21T12:39:33.034Z,101213.72
2023-01-21T12:42:10.589Z,101207.63
2023-01-21T12:44:46.104Z,101209.41
2023-01-21T12:47:20.000Z,101219.09
2023-01-21T12:49:58.184Z,101214.69
2023-01-21T12:52:32.988Z,101215.59
2023-01-21T12:55:07.556Z,101220.81
2023-01-21T12:57:40.265Z,101222.47
2023-01-21T13:00:19.520Z,101208.47
2023-01-21T13:02:56.496Z,101213.72
2023-01-21T13:05:30.612Z,101228.69
2023-01-21T13:08:12.361Z,101222.50
2023-01-21T13:10:42.692Z,101226.88
2023-01-21T13:13:18.049Z,101231.31
2023-01-21T13:15:50.594Z,101221.69
2023-01-21T13:18:20.841Z,101225.25
2023-01-21T13:20:54.226Z,101228.59
2023-01-21T13:23:30.325Z,101232.19
2023-01-21T13:26:04.113Z,101231.38
2023-01-21T13:28:40.298Z,101234.84
2023-01-21T13:31:17.954Z,101231.19
2023-01-21T13:33:54.117Z,101234.72
2023-01-21T13:36:42.232Z,101236.31
2023-01-21T13:39:20.515Z,101231.72
2023-01-21T13:42:07.341Z,101238.81
2023-01-21T13:45:06.601Z,101236.19
2023-01-21T13:48:01.911Z,101231.72
2023-01-21T13:50:43.762Z,101245.78
2023-01-21T13:53:31.171Z,101238.81
2023-01-21T13:56:18.539Z,101246.66
2023-01-21T13:58:52.710Z,101241.53
2023-01-21T14:01:25.752Z,101239.72
2023-01-21T14:04:02.096Z,101240.63
2023-01-21T14:06:35.349Z,101245.97
2023-01-21T14:09:07.685Z,101252.06
2023-01-21T14:11:40.404Z,101254.59
2023-01-21T14:14:47.577Z,101268.47
2023-01-21T14:17:33.693Z,101264.09
2023-01-21T14:20:27.551Z,101265.00
2023-01-21T14:23:09.999Z,101258.88
2023-01-21T14:25:52.234Z,101265.16
2023-01-21T14:28:25.167Z,101267.75
2023-01-21T14:31:02.451Z,101265.97
2023-01-21T14:33:44.023Z,101261.44
2023-01-21T14:36:18.343Z,101262.25
2023-01-21T14:38:59.665Z,101267.44
2023-01-21T14:42:02.821Z,101273.63
2023-01-21T14:44:38.915Z,101270.16
2023-01-21T14:47:15.796Z,101271.16
2023-01-21T14:49:45.755Z,101256.34
2023-01-21T14:52:16.539Z,101260.84
2023-01-21T14:54:45.464Z,101261.78
2023-01-21T14:57:27.194Z,101261.81
2023-01-21T15:00:02.749Z,101270.66
2023-01-21T15:02:32.051Z,101263.69
2023-01-21T15:05:01.819Z,101265.53
2023-01-21T15:07:36.197Z,101273.44
2023-01-21T15:10:11.426Z,101269.94
2023-01-21T15:12:40.280Z,101272.56
2023-01-21T15:15:30.845Z,101271.75
2023-01-21T15:18:06.347Z,101274.38
2023-01-21T15:20:47.326Z,101278.78
2023-01-21T15:23:37.268Z,101280.53
2023-01-21T15:26:20.957Z,101278.81
2023-01-21T15:28:49.360Z,101279.63
2023-01-21T15:31:46.882Z,101279.56
2023-01-21T15:34:17.153Z,101284.00
2023-01-21T15:36:46.937Z,101288.41
2023-01-21T15:39:18.293Z,101281.41
2023-01-21T15:41:59.010Z,101283.19
2023-01-21T15:44:37.223Z,101277.03
2023-01-21T15:47:19.972Z,101282.31
2023-01-21T15:50:03.083Z,101287.56
2023-01-21T15:52:41.491Z,101280.28
2023-01-21T15:55:22.515Z,101283.94
2023-01-21T15:57:55.156Z,101285.78
2023-01-21T16:00:34.006Z,101281.41
2023-01-21T16:03:19.000Z,101278.72
2023-01-21T16:05:55.356Z,101285.75
2023-01-21T16:08:34.426Z,101282.19
2023-01-21T16:11:17.042Z,101288.34
2023-01-21T16:13:54.450Z,101284.88
2023-01-21T16:16:34.179Z,101285.72
2023-01-21T16:19:04.993Z,101290.13
2023-01-21T16:21:35.796Z,101292.81
2023-01-21T16:24:09.017Z,101284.91
2023-01-21T16:26:37.931Z,101289.31
2023-01-21T16:29:13.023Z,101285.81
2023-01-21T16:31:48.221Z,101288.41
2023-01-21T16:34:24.157Z,101284.00
2023-01-21T16:36:52.053Z,101280.38
2023-01-21T16:39:20.610Z,101280.47
2023-01-21T16:42:01.340Z,101281.38
2023-01-21T16:44:29.694Z,101280.41
2023-01-21T16:46:57.249Z,101281.28
2023-01-21T16:49:24.982Z,101285.72
2023-01-21T16:51:56.421Z,101287.44
2023-01-21T16:54:29.477Z,101283.94
2023-01-21T16:57:00.721Z,101286.59
2023-01-21T16:59:30.617Z,101289.25
2023-01-21T17:01:59.920Z,101290.09
2023-01-21T17:04:29.424Z,101289.22
2023-01-21T17:06:57.627Z,101296.22
2023-01-21T17:09:32.486Z,101291.84
2023-01-21T17:12:04.683Z,101291.84
2023-01-21T17:14:33.884Z,101293.63
2023-01-21T17:17:05.041Z,101290.94
2023-01-21T17:19:36.410Z,101288.34
2023-01-21T17:22:12.795Z,101293.59
2023-01-21T17:24:43.995Z,101288.31
2023-01-21T17:27:18.926Z,101290.94
2023-01-21T17:29:46.436Z,101297.97
2023-01-21T17:32:26.320Z,101289.22
2023-01-21T17:35:06.498Z,101300.63
2023-01-21T17:37:46.306Z,101305.84
2023-01-21T17:40:28.920Z,101311.13
2023-01-21T17:42:59.312Z,101309.38
2023-01-21T17:45:31.429Z,101315.47
2023-01-21T17:48:09.437Z,101315.50
2023-01-21T17:50:39.208Z,101310.19
2023-01-21T17:53:09.894Z,101325.94
2023-01-21T17:55:39.389Z,101316.31
2023-01-21T17:58:45.929Z,101321.56
2023-01-21T18:01:14.262Z,101323.34
2023-01-21T18:03:41.798Z,101319.00
2023-01-21T18:06:17.239Z,101322.53
2023-01-21T18:08:44.589Z,101329.56
2023-01-21T18:11:15.623Z,101331.25
2023-01-21T18:13:44.528Z,101331.25
2023-01-21T18:16:12.129Z,101331.28
2023-01-21T18:18:39.968Z,101336.50
2023-01-21T18:21:07.749Z,101325.06
2023-01-21T18:23:35.259Z,101325.06
2023-01-21T18:26:03.480Z,101321.56
2023-01-21T18:28:32.160Z,101311.91
2023-01-21T18:31:01.835Z,101318.91
2023-01-21T18:33:30.820Z,101314.53
2023-01-21T18:35:58.349Z,101311.00
2023-01-21T18:38:27.889Z,101317.06
2023-01-21T18:40:55.586Z,101306.53
2023-01-21T18:43:23.290Z,101309.19
2023-01-21T18:45:52.659Z,101305.75
2023-01-21T18:48:28.569Z,101306.59
2023-01-21T18:50:56.147Z,101310.09
2023-01-21T18:53:23.741Z,101309.88
2023-01-21T18:55:54.510Z,101310.03
2023-01-21T18:58:22.180Z,101315.41
2023-01-21T19:00:50.814Z,101309.22
2023-01-21T19:03:18.554Z,101308.38
2023-01-21T19:05:47.921Z,101311.03
2023-01-21T19:08:18.528Z,101315.41
2023-01-21T19:10:46.090Z,101309.28
2023-01-21T19:13:13.709Z,101308.38
2023-01-21T19:15:41.714Z,101303.19
2023-01-21T19:18:11.836Z,101304.97
2023-01-21T19:20:41.461Z,101293.56
2023-01-21T19:23:15.447Z,101296.16
2023-01-21T19:25:43.667Z,101297.06
2023-01-21T19:28:12.734Z,101296.22
2023-01-21T19:30:44.939Z,101292.63
2023-01-21T19:33:13.574Z,101292.59
2023-01-21T19:35:44.691Z,101291.72
2023-01-21T19:38:17.199Z,101288.28
2023-01-21T19:40:45.600Z,101287.38
2023-01-21T19:43:14.693Z,101285.59
2023-01-21T19:45:42.951Z,101292.69
2023-01-21T19:48:12.993Z,101288.31
2023-01-21T19:50:40.853Z,101290.00
2023-01-21T19:53:10.435Z,101291.75
2023-01-21T19:55:40.056Z,101289.19
2023-01-21T19:58:17.697Z,101291.81
2023-01-21T20:00:45.245Z,101285.69
2023-01-21T20:03:13.672Z,101285.59
2023-01-21T20:05:41.287Z,101287.38
2023-01-21T20:08:12.203Z,101286.59
2023-01-21T20:10:41.912Z,101287.41
2023-01-21T20:13:12.759Z,101283.03
2023-01-21T20:15:42.196Z,101293.53
2023-01-21T20:18:18.222Z,101282.16
2023-01-21T20:20:45.962Z,101290.94
2023-01-21T20:23:15.258Z,101285.69
2023-01-21T20:25:45.972Z,101289.22
2023-01-21T20:28:19.190Z,101283.06
2023-01-21T20:30:47.308Z,101283.03
2023-01-21T20:33:16.271Z,101289.22
2023-01-21T20:35:44.963Z,101298.84
2023-01-21T20:38:14.650Z,101301.47
2023-01-21T20:40:43.885Z,101298.84
2023-01-21T20:43:11.516Z,101293.56
2023-01-21T20:45:42.724Z,101301.47
2023-01-21T20:48:18.974Z,101305.03
2023-01-21T20:50:46.586Z,101301.47
2023-01-21T20:53:14.144Z,101295.38
2023-01-21T20:55:45.810Z,101292.75
2023-01-21T20:58:14.418Z,101293.66
2023-01-21T21:00:43.595Z,101298.03
2023-01-21T21:03:11.758Z,101298.94
2023-01-21T21:05:39.299Z,101299.78
2023-01-21T21:08:06.805Z,101296.25
2023-01-21T21:10:36.219Z,101299.78
2023-01-21T21:13:05.969Z,101294.50
2023-01-21T21:15:35.063Z,101300.66
2023-01-21T21:18:03.739Z,101287.53
2023-01-21T21:20:32.705Z,101295.31
2023-01-21T21:23:00.233Z,101295.34
2023-01-21T21:25:29.497Z,101298.81
2023-01-21T21:27:57.099Z,101301.44
2023-01-21T21:30:28.112Z,101293.53
2023-01-21T21:32:57.867Z,101298.00
2023-01-21T21:35:27.592Z,101284.00
2023-01-21T21:37:56.572Z,101283.09
2023-01-21T21:40:27.037Z,101281.41
2023-01-21T21:43:13.445Z,101283.13
2023-01-21T21:46:02.356Z,101282.28
2023-01-21T21:48:39.162Z,101279.56
2023-01-21T21:51:07.410Z,101279.63
2023-01-21T21:53:35.012Z,101279.69
2023-01-21T21:56:03.955Z,101287.53
2023-01-21T21:58:31.438Z,101285.78
2023-01-21T22:01:09.515Z,101282.22
2023-01-21T22:03:37.349Z,101287.50
2023-01-21T22:06:05.518Z,101284.00
2023-01-21T22:08:33.856Z,101296.25
2023-01-21T22:11:02.099Z,101290.09
2023-01-21T22:13:29.747Z,101287.38
2023-01-21T22:15:58.213Z,101294.47
2023-01-21T22:18:28.248Z,101287.41
2023-01-21T22:21:00.540Z,101289.19
2023-01-21T22:23:29.871Z,101296.13
2023-01-21T22:25:57.597Z,101297.06
2023-01-21T22:28:25.153Z,101296.22
2023-01-21T22:30:52.835Z,101297.06
2023-01-21T22:33:22.065Z,101297.06
2023-01-21T22:35:50.883Z,101290.91
2023-01-21T22:38:19.345Z,101286.53
2023-01-21T22:40:53.588Z,101292.59
2023-01-21T22:43:21.767Z,101293.56
2023-01-21T22:45:50.159Z,101297.97
2023-01-21T22:48:18.504Z,101297.06
2023-01-21T22:50:46.035Z,101299.75
2023-01-21T22:53:14.954Z,101299.75
2023-01-21T22:55:42.408Z,101295.34
2023-01-21T22:58:09.907Z,101297.03
2023-01-21T23:00:39.008Z,101304.81
2023-01-21T23:03:07.390Z,101295.25
2023-01-21T23:05:36.083Z,101290.91
2023-01-21T23:08:03.691Z,101289.09
2023-01-21T23:10:32.556Z,101285.50
2023-01-21T23:13:00.046Z,101284.69
2023-01-21T23:15:27.814Z,101282.88
2023-01-21T23:17:55.496Z,101281.00
2023-01-21T23:20:25.141Z,101270.50
2023-01-21T23:22:52.636Z,101268.88
2023-01-21T23:25:20.228Z,101257.41
2023-01-21T23:27:49.035Z,101256.50
2023-01-21T23:30:17.789Z,101256.50
2023-01-21T23:32:45.574Z,101246.88
2023-01-21T23:35:13.228Z,101251.34
2023-01-21T23:37:40.749Z,101238.13
2023-01-21T23:40:09.602Z,101232.84
2023-01-21T23:42:37.073Z,101231.22
2023-01-21T23:45:06.374Z,101229.44
2023-01-21T23:47:33.829Z,101232.91
2023-01-21T23:50:01.330Z,101233.78
2023-01-21T23:52:28.789Z,101231.00
2023-01-21T23:54:56.306Z,101234.59
2023-01-21T23:57:23.768Z,101232.91
2023-01-21T23:59:51.267Z,101235.56
